createdAt,value
2023-03-29T05:05:11.061Z,25.00
2023-03-29T05:08:11.170Z,25.00
2023-03-29T05:09:11.186Z,0.00
2023-03-29T05:10:12.262Z,0.00
2023-03-29T05:13:11.368Z,0.00
2023-03-29T05:15:11.444Z,0.00
2023-03-29T05:16:11.574Z,0.00
2023-03-29T05:17:12.468Z,0.00
2023-03-29T05:18:12.531Z,0.00
2023-03-29T05:20:11.502Z,0.00
2023-03-29T05:21:12.523Z,0.00
2023-03-29T05:22:12.536Z,0.00
2023-03-29T05:28:11.574Z,0.00
2023-03-29T05:34:11.536Z,25.12
2023-03-29T05:35:11.552Z,25.00
2023-03-29T05:37:11.518Z,25.00
2023-03-29T05:40:11.501Z,26.64
2023-03-29T05:41:12.510Z,25.28
2023-03-29T05:43:11.489Z,25.92
2023-03-29T05:48:11.473Z,26.08
2023-03-29T05:49:12.471Z,27.01
2023-03-29T05:52:11.421Z,27.76
2023-03-29T05:54:11.399Z,27.60
2023-03-29T05:55:11.608Z,26.55
2023-03-29T05:56:11.423Z,29.54
2023-03-29T05:57:11.717Z,33.80
2023-03-29T05:58:12.376Z,37.26
2023-03-29T06:01:11.389Z,41.32
2023-03-29T06:03:20.364Z,58.66
2023-03-29T06:04:12.528Z,59.28
2023-03-29T06:05:12.340Z,60.39
2023-03-29T06:06:12.361Z,62.94
2023-03-29T06:09:11.335Z,59.74
2023-03-29T06:10:12.306Z,59.47
2023-03-29T06:11:12.325Z,62.31
2023-03-29T06:12:11.317Z,61.74
2023-03-29T06:13:12.294Z,64.40
2023-03-29T06:17:11.328Z,63.69
2023-03-29T06:18:12.359Z,59.45
2023-03-29T06:19:12.251Z,62.62
2023-03-29T06:24:11.221Z,61.59
2023-03-29T06:25:12.249Z,64.49
2023-03-29T06:26:12.196Z,63.80
2023-03-29T06:27:12.205Z,70.82
2023-03-29T06:29:11.205Z,85.37
2023-03-29T06:31:11.208Z,75.63
2023-03-29T06:33:11.218Z,73.92
2023-03-29T06:35:11.185Z,129.03
2023-03-29T06:36:12.191Z,110.87
2023-03-29T06:39:11.149Z,90.54
2023-03-29T06:40:12.131Z,91.24
2023-03-29T06:41:12.134Z,90.97
2023-03-29T06:42:20.602Z,82.10
2023-03-29T06:45:11.104Z,82.66
2023-03-29T06:47:11.091Z,87.29
2023-03-29T06:48:12.099Z,84.26
2023-03-29T06:49:11.074Z,84.94
2023-03-29T06:50:11.078Z,83.88
2023-03-29T06:52:11.227Z,84.20
2023-03-29T06:53:12.036Z,92.86
2023-03-29T06:54:12.042Z,104.89
2023-03-29T06:55:12.069Z,99.07
2023-03-29T06:56:12.031Z,94.21
2023-03-29T06:57:12.277Z,82.25
2023-03-29T07:01:10.981Z,80.62
2023-03-29T07:02:12.015Z,80.59
2023-03-29T07:03:11.043Z,83.93
2023-03-29T07:06:10.977Z,92.35
2023-03-29T07:08:11.243Z,41.33
2023-03-29T07:09:11.934Z,18.46
2023-03-29T07:13:10.909Z,33.88
2023-03-29T07:14:11.903Z,40.56
2023-03-29T07:15:11.909Z,37.39
2023-03-29T07:16:11.914Z,50.18
2023-03-29T07:20:10.877Z,84.50
2023-03-29T07:21:11.932Z,88.61
2023-03-29T07:22:11.862Z,89.69
2023-03-29T07:23:11.893Z,92.89
2023-03-29T07:24:11.847Z,96.35
2023-03-29T07:27:10.864Z,103.25
2023-03-29T07:28:11.811Z,99.67
2023-03-29T07:29:11.807Z,98.68
2023-03-29T07:31:10.801Z,98.24
2023-03-29T07:34:10.756Z,103.88
2023-03-29T07:36:10.796Z,108.91
2023-03-29T07:37:11.736Z,118.67
2023-03-29T07:40:10.723Z,125.68
2023-03-29T07:41:11.738Z,122.51
2023-03-29T07:42:11.738Z,127.54
2023-03-29T07:43:11.713Z,125.17
2023-03-29T07:44:11.681Z,122.91
2023-03-29T07:45:11.684Z,121.29
2023-03-29T07:48:10.772Z,128.18
2023-03-29T07:50:10.726Z,122.53
2023-03-29T07:51:11.752Z,130.26
2023-03-29T07:52:12.253Z,126.96
2023-03-29T07:53:11.806Z,116.60
2023-03-29T07:54:11.831Z,101.52
2023-03-29T07:58:10.918Z,97.08
2023-03-29T07:59:11.960Z,99.00
2023-03-29T08:03:11.130Z,118.13
2023-03-29T08:04:12.174Z,116.56
2023-03-29T08:05:12.063Z,119.88
2023-03-29T08:06:12.091Z,116.77
2023-03-29T08:07:12.098Z,117.68
2023-03-29T08:08:12.110Z,119.83
2023-03-29T08:09:12.138Z,115.52
2023-03-29T08:10:12.178Z,131.03
2023-03-29T08:11:11.142Z,210.84
2023-03-29T08:12:12.174Z,280.99
2023-03-29T08:14:11.218Z,247.06
2023-03-29T08:15:12.281Z,235.99
2023-03-29T08:17:11.321Z,216.49
2023-03-29T08:20:11.394Z,195.52
2023-03-29T08:21:12.427Z,198.34
2023-03-29T08:22:12.426Z,194.95
2023-03-29T08:23:12.539Z,188.21
2023-03-29T08:24:12.487Z,193.20
2023-03-29T08:25:12.497Z,188.71
2023-03-29T08:26:12.505Z,186.39
2023-03-29T08:28:11.517Z,189.96
2023-03-29T08:31:11.649Z,183.99
2023-03-29T08:32:12.613Z,182.98
2023-03-29T08:33:12.661Z,180.60
2023-03-29T08:34:12.634Z,182.87
2023-03-29T08:35:12.656Z,176.65
2023-03-29T08:38:11.704Z,170.31
2023-03-29T08:40:11.750Z,172.21
2023-03-29T08:41:11.792Z,174.33
2023-03-29T08:42:13.297Z,171.84
2023-03-29T08:45:11.860Z,169.39
2023-03-29T08:47:11.908Z,165.76
2023-03-29T08:49:11.893Z,162.81
2023-03-29T08:50:11.930Z,161.64
2023-03-29T08:52:11.995Z,161.10
2023-03-29T08:53:13.067Z,158.87
2023-03-29T08:54:13.083Z,157.50
2023-03-29T08:55:13.111Z,157.18
2023-03-29T08:56:13.149Z,157.65
2023-03-29T08:57:12.191Z,157.01
2023-03-29T08:58:13.285Z,156.59
2023-03-29T08:59:12.264Z,155.76
2023-03-29T09:02:12.383Z,152.94
2023-03-29T09:03:13.488Z,155.70
2023-03-29T09:04:13.456Z,154.81
2023-03-29T09:05:13.457Z,153.22
2023-03-29T09:06:13.470Z,153.46
2023-03-29T09:07:13.482Z,151.55
2023-03-29T09:08:13.591Z,150.02
2023-03-29T09:09:13.540Z,150.43
2023-03-29T09:10:13.625Z,150.96
2023-03-29T09:11:13.646Z,150.91
2023-03-29T09:12:13.651Z,150.03
2023-03-29T09:13:13.782Z,148.07
2023-03-29T09:14:13.783Z,149.85
2023-03-29T09:15:13.778Z,150.63
2023-03-29T09:16:13.862Z,149.14
2023-03-29T09:17:12.819Z,148.50
2023-03-29T09:18:13.904Z,150.01
2023-03-29T09:19:13.920Z,147.82
2023-03-29T09:22:12.992Z,147.21
2023-03-29T09:23:14.043Z,145.67
2023-03-29T09:24:14.071Z,146.99
2023-03-29T09:25:14.121Z,149.28
2023-03-29T09:26:14.139Z,149.23
2023-03-29T09:27:14.197Z,148.60
2023-03-29T09:28:14.234Z,145.86
2023-03-29T09:29:14.263Z,140.23
2023-03-29T09:30:14.295Z,146.18
2023-03-29T09:31:14.368Z,149.23
2023-03-29T09:32:14.347Z,144.33
2023-03-29T09:33:14.466Z,144.06
2023-03-29T09:34:15.780Z,142.57
2023-03-29T09:35:14.521Z,143.49
2023-03-29T09:36:14.611Z,146.69
2023-03-29T09:37:13.595Z,144.39
2023-03-29T09:38:13.632Z,143.95
2023-03-29T09:39:14.654Z,143.35
2023-03-29T09:40:14.714Z,141.43
2023-03-29T09:41:14.746Z,141.63
2023-03-29T09:45:13.944Z,142.60
2023-03-29T09:46:14.072Z,139.76
2023-03-29T09:47:15.041Z,139.26
2023-03-29T09:48:15.295Z,136.91
2023-03-29T09:49:16.685Z,141.12
2023-03-29T09:50:27.731Z,141.46
2023-03-29T09:51:15.164Z,141.77
2023-03-29T09:53:14.125Z,142.47
2023-03-29T09:54:15.138Z,140.37
2023-03-29T09:55:15.131Z,139.58
2023-03-29T09:59:14.084Z,139.76
2023-03-29T10:00:15.071Z,139.83
2023-03-29T10:01:14.143Z,142.06
2023-03-29T10:02:14.095Z,136.45
2023-03-29T10:03:15.166Z,140.03
2023-03-29T10:05:14.040Z,136.47
2023-03-29T10:06:15.028Z,134.56
2023-03-29T10:07:15.064Z,130.99
2023-03-29T10:08:16.642Z,133.32
2023-03-29T10:12:14.015Z,133.84
2023-03-29T10:13:15.004Z,133.95
2023-03-29T10:14:15.009Z,138.07
2023-03-29T10:16:14.004Z,132.43
2023-03-29T10:17:14.967Z,141.83
2023-03-29T10:18:14.975Z,139.36
2023-03-29T10:22:13.956Z,138.64
2023-03-29T10:23:13.976Z,137.44
2023-03-29T10:24:13.947Z,138.23
2023-03-29T10:26:33.101Z,25.00
2023-03-29T10:28:52.209Z,25.00
2023-03-29T10:30:52.134Z,25.00
2023-03-29T10:31:52.219Z,25.00
2023-03-29T10:32:53.214Z,25.00
2023-03-29T10:33:53.212Z,25.00
2023-03-29T10:36:52.355Z,26.14
2023-03-29T10:37:53.185Z,26.88
2023-03-29T10:38:53.206Z,27.35
2023-03-29T10:39:53.516Z,28.76
2023-03-29T10:59:27.734Z,25.00
2023-03-29T11:02:46.804Z,25.00
2023-03-29T11:03:47.767Z,25.00
2023-03-29T11:04:46.635Z,25.00
2023-03-29T11:05:47.881Z,25.00
2023-03-29T11:06:46.617Z,70.59
2023-03-29T11:07:46.625Z,117.42
2023-03-29T11:08:47.670Z,124.24
2023-03-29T11:12:46.572Z,41.04
2023-03-29T11:13:47.562Z,23.77
2023-03-29T11:14:47.677Z,25.00
2023-03-29T11:15:47.564Z,25.00
2023-03-29T11:17:46.564Z,25.67
2023-03-29T11:20:46.528Z,26.00
2023-03-29T11:21:47.515Z,26.43
2023-03-29T11:22:46.521Z,25.66
2023-03-29T11:23:46.503Z,25.86
2023-03-29T11:24:47.510Z,25.00
2023-03-29T11:26:46.491Z,27.27
2023-03-29T11:27:47.608Z,29.16
2023-03-29T11:28:47.615Z,27.07
2023-03-29T11:29:47.453Z,25.00
2023-03-29T11:30:47.713Z,34.68
2023-03-29T11:31:46.506Z,0.00
2023-03-29T11:32:47.525Z,0.00
2023-03-29T11:33:47.475Z,0.00
2023-03-29T11:36:46.394Z,45.20
2023-03-29T11:37:47.554Z,35.68
2023-03-29T11:38:47.463Z,25.36
2023-03-29T11:39:47.861Z,45.67
2023-03-29T11:40:47.496Z,62.92
2023-03-29T11:41:47.395Z,63.05
2023-03-29T11:45:46.393Z,64.62
2023-03-29T11:46:47.567Z,66.23
2023-03-29T11:47:47.470Z,66.62
2023-03-29T11:52:46.499Z,77.07
2023-03-29T11:53:47.552Z,80.49
2023-03-29T11:54:47.565Z,76.59
2023-03-29T11:55:47.547Z,82.48
2023-03-29T11:56:47.751Z,84.25
2023-03-29T11:57:47.641Z,80.54
2023-03-29T11:58:47.731Z,83.83
2023-03-29T11:59:47.642Z,84.17
2023-03-29T12:00:47.646Z,84.21
2023-03-29T12:02:46.874Z,85.73
2023-03-29T12:03:47.836Z,84.88
2023-03-29T12:04:47.707Z,85.65
2023-03-29T12:08:46.767Z,85.12
2023-03-29T12:09:47.783Z,86.02
2023-03-29T12:10:47.774Z,88.93
2023-03-29T12:11:47.792Z,85.66
2023-03-29T12:12:47.841Z,86.34
2023-03-29T12:16:46.980Z,82.98
2023-03-29T12:17:47.930Z,88.96
2023-03-29T12:21:47.050Z,89.81
2023-03-29T12:22:48.022Z,85.98
2023-03-29T12:23:48.052Z,84.04
2023-03-29T12:25:47.084Z,87.86
2023-03-29T12:26:48.092Z,85.55
2023-03-29T12:27:48.131Z,85.53
2023-03-29T12:28:48.147Z,86.81
2023-03-29T12:29:48.166Z,84.46
2023-03-29T12:30:48.182Z,86.86
2023-03-29T12:31:48.228Z,87.97
2023-03-29T12:32:48.232Z,86.31
2023-03-29T12:33:48.299Z,83.64
2023-03-29T12:34:48.349Z,83.28
2023-03-29T12:36:47.332Z,80.76
2023-03-29T12:37:48.353Z,85.03
2023-03-29T12:38:48.373Z,85.85
2023-03-29T12:39:48.434Z,81.25
2023-03-29T12:40:48.422Z,86.51
2023-03-29T12:41:48.457Z,87.23
2023-03-29T12:43:47.486Z,82.07
2023-03-29T12:44:48.516Z,82.01
2023-03-29T12:48:47.595Z,85.06
2023-03-29T12:49:47.651Z,83.08
2023-03-29T12:50:48.690Z,87.28
2023-03-29T12:52:47.707Z,84.69
2023-03-29T12:53:48.739Z,82.48
2023-03-29T12:54:48.764Z,82.14
2023-03-29T12:55:48.769Z,82.71
2023-03-29T12:56:48.895Z,81.09
2023-03-29T12:57:48.823Z,81.04
2023-03-29T12:58:48.869Z,81.99
2023-03-29T12:59:48.887Z,80.40
2023-03-29T13:04:48.040Z,76.36
2023-03-29T13:05:49.140Z,76.20
2023-03-29T13:06:50.984Z,79.36
2023-03-29T13:09:48.035Z,80.04
2023-03-29T13:10:49.036Z,75.89
2023-03-29T13:15:48.035Z,76.28
2023-03-29T13:16:49.062Z,73.63
2023-03-29T13:20:47.973Z,76.05
2023-03-29T13:21:48.961Z,74.75
2023-03-29T13:22:48.992Z,75.30
2023-03-29T13:25:47.921Z,76.82
2023-03-29T13:26:48.923Z,73.08
2023-03-29T13:27:48.920Z,76.55
2023-03-29T13:28:47.942Z,74.22
2023-03-29T13:29:48.929Z,71.58
2023-03-29T13:34:47.866Z,71.53
2023-03-29T13:35:48.930Z,77.46
2023-03-29T13:36:48.849Z,76.99
2023-03-29T13:40:48.009Z,71.02
2023-03-29T13:41:48.837Z,74.28
2023-03-29T13:42:48.821Z,71.92
2023-03-29T13:47:58.650Z,71.07
2023-03-29T13:48:48.787Z,71.32
2023-03-29T13:49:51.558Z,71.15
2023-03-29T13:52:47.745Z,70.27
2023-03-29T13:53:48.744Z,72.98
2023-03-29T13:54:47.844Z,69.10
2023-03-29T13:55:48.736Z,71.80
2023-03-29T13:56:48.742Z,68.84
2023-03-29T13:57:48.712Z,69.02
2023-03-29T14:02:49.415Z,71.84
2023-03-29T14:03:48.675Z,69.66
2023-03-29T14:05:47.671Z,66.32
2023-03-29T14:06:48.641Z,62.99
2023-03-29T14:07:48.667Z,69.03
2023-03-29T14:12:47.656Z,69.05
2023-03-29T14:13:48.618Z,64.93
2023-03-29T14:16:47.769Z,64.31
2023-03-29T14:17:48.840Z,63.17
2023-03-29T14:19:47.914Z,64.01
2023-03-29T14:20:48.875Z,63.24
2023-03-29T14:21:48.874Z,65.48
2023-03-29T14:22:48.882Z,63.26
2023-03-29T14:23:48.941Z,65.53
2023-03-29T14:24:48.968Z,61.87
2023-03-29T14:25:49.059Z,63.03
2023-03-29T14:26:49.010Z,64.54
2023-03-29T14:27:49.050Z,63.97
2023-03-29T14:28:49.048Z,65.80
2023-03-29T14:29:49.072Z,61.89
2023-03-29T14:30:49.101Z,65.02
2023-03-29T14:31:49.188Z,65.50
2023-03-29T14:32:49.231Z,63.18
2023-03-29T14:34:48.248Z,64.38
2023-03-29T14:35:49.321Z,65.42
2023-03-29T14:36:49.438Z,61.98
2023-03-29T14:37:49.315Z,64.58
2023-03-29T14:38:49.377Z,66.00
2023-03-29T14:39:49.424Z,63.59
2023-03-29T14:40:49.421Z,61.97
2023-03-29T14:41:49.508Z,64.35
2023-03-29T14:42:49.448Z,61.02
2023-03-29T14:43:49.441Z,60.09
2023-03-29T14:50:48.646Z,61.34
2023-03-29T14:51:49.688Z,59.15
2023-03-29T14:52:51.761Z,61.31
2023-03-29T14:54:48.684Z,61.26
2023-03-29T14:55:49.691Z,58.68
2023-03-29T14:56:48.837Z,58.89
2023-03-29T14:57:49.667Z,54.07
2023-03-29T14:58:49.696Z,61.29
2023-03-29T15:02:48.729Z,59.72
2023-03-29T15:03:49.668Z,59.88
2023-03-29T15:04:49.675Z,61.19
2023-03-29T15:05:49.619Z,62.05
2023-03-29T15:06:48.604Z,58.64
2023-03-29T15:07:49.580Z,60.56
2023-03-29T15:09:02.012Z,59.13
2023-03-29T15:14:48.607Z,67.99
2023-03-29T15:15:49.601Z,18.56
2023-03-29T15:16:49.522Z,0.00
2023-03-29T15:17:51.747Z,0.00
2023-03-29T15:18:49.536Z,0.00
2023-03-29T15:19:49.503Z,0.00
2023-03-29T15:20:49.547Z,0.00
2023-03-29T15:24:48.505Z,0.00
2023-03-29T15:25:49.480Z,0.00
2023-03-29T15:26:49.485Z,0.00
2023-03-29T15:28:48.448Z,42.30
2023-03-29T15:29:49.463Z,52.49
